createdAt,value
2022-08-03T00:00:08.400Z,73.68
2022-08-03T00:01:08.412Z,73.58
2022-08-03T00:02:08.391Z,73.68
2022-08-03T00:03:08.432Z,73.58
2022-08-03T00:04:08.382Z,73.58
2022-08-03T00:05:08.381Z,73.68
2022-08-03T00:06:08.323Z,73.47
2022-08-03T00:07:08.313Z,73.71
2022-08-03T00:08:08.313Z,73.81
2022-08-03T00:09:08.310Z,73.91
2022-08-03T00:10:08.306Z,73.91
2022-08-03T00:11:08.310Z,74.01
2022-08-03T00:12:08.267Z,74.32
2022-08-03T00:13:08.264Z,74.32
2022-08-03T00:14:08.248Z,74.62
2022-08-03T00:15:11.514Z,74.32
2022-08-03T00:16:09.245Z,74.21
2022-08-03T00:17:08.195Z,74.35
2022-08-03T00:18:08.200Z,74.32
2022-08-03T00:19:08.175Z,74.85
2022-08-03T00:20:08.219Z,75.05
2022-08-03T00:21:08.151Z,74.95
2022-08-03T00:22:08.170Z,75.46
2022-08-03T00:23:08.138Z,75.26
2022-08-03T00:24:08.117Z,75.26
2022-08-03T00:25:08.125Z,75.96
2022-08-03T00:26:08.102Z,75.86
2022-08-03T00:27:08.089Z,75.86
2022-08-03T00:28:08.100Z,75.05
2022-08-03T00:29:08.059Z,75.26
2022-08-03T00:30:08.048Z,75.46
2022-08-03T00:31:08.029Z,75.66
2022-08-03T00:32:10.922Z,74.95
2022-08-03T00:33:08.363Z,74.85
2022-08-03T00:34:08.022Z,74.95
2022-08-03T00:35:09.822Z,75.05
2022-08-03T00:36:07.980Z,75.15
2022-08-03T00:37:07.965Z,75.05
2022-08-03T00:38:07.991Z,75.26
2022-08-03T00:39:07.997Z,75.35
2022-08-03T00:40:07.953Z,75.35
2022-08-03T00:41:07.923Z,75.59
2022-08-03T00:42:07.916Z,75.49
2022-08-03T00:43:07.897Z,75.59
2022-08-03T00:44:07.883Z,75.59
2022-08-03T00:45:07.892Z,75.39
2022-08-03T00:46:07.865Z,75.29
2022-08-03T00:47:07.847Z,75.29
2022-08-03T00:48:29.776Z,75.29
2022-08-03T00:49:08.888Z,75.39
2022-08-03T00:50:07.813Z,75.59
2022-08-03T00:51:07.815Z,75.70
2022-08-03T00:52:09.555Z,75.49
2022-08-03T00:53:07.782Z,75.19
2022-08-03T00:54:07.769Z,75.19
2022-08-03T00:55:07.755Z,75.49
2022-08-03T00:56:07.744Z,75.59
2022-08-03T00:57:07.760Z,75.79
2022-08-03T00:58:07.731Z,75.79
2022-08-03T00:59:07.740Z,76.20
2022-08-03T01:00:07.696Z,76.20
2022-08-03T01:01:07.759Z,76.30
2022-08-03T01:02:07.701Z,76.34
2022-08-03T01:03:07.700Z,76.43
2022-08-03T01:04:07.658Z,76.43
2022-08-03T01:05:07.648Z,76.64
2022-08-03T01:06:07.628Z,76.74
2022-08-03T01:07:10.673Z,76.84
2022-08-03T01:08:07.619Z,77.04
2022-08-03T01:09:07.598Z,77.24
2022-08-03T01:10:07.580Z,77.55
2022-08-03T01:11:07.581Z,77.68
2022-08-03T01:12:07.560Z,77.88
2022-08-03T01:13:07.562Z,77.78
2022-08-03T01:14:18.997Z,77.78
2022-08-03T01:15:08.520Z,78.19
2022-08-03T01:16:07.509Z,78.28
2022-08-03T01:17:07.493Z,78.49
2022-08-03T01:18:07.482Z,78.59
2022-08-03T01:19:07.471Z,78.49
2022-08-03T01:20:07.518Z,78.49
2022-08-03T01:21:07.454Z,78.39
2022-08-03T01:22:07.447Z,78.39
2022-08-03T01:23:07.431Z,78.59
2022-08-03T01:24:07.425Z,78.69
2022-08-03T01:25:07.415Z,78.69
2022-08-03T01:26:07.423Z,78.79
2022-08-03T01:27:07.397Z,78.52
2022-08-03T01:28:07.373Z,78.52
2022-08-03T01:29:07.364Z,78.52
2022-08-03T01:30:07.342Z,78.42
2022-08-03T01:31:07.354Z,78.42
2022-08-03T01:33:00.186Z,78.32
2022-08-03T01:33:08.762Z,78.52
2022-08-03T01:34:09.263Z,78.83
2022-08-03T01:35:08.297Z,78.22
2022-08-03T01:36:07.274Z,77.88
2022-08-03T01:37:07.275Z,77.78
2022-08-03T01:38:07.286Z,77.78
2022-08-03T01:39:07.267Z,77.68
2022-08-03T01:40:07.233Z,77.68
2022-08-03T01:41:07.221Z,77.78
2022-08-03T01:42:07.205Z,77.82
2022-08-03T01:43:07.189Z,77.92
2022-08-03T01:44:30.012Z,78.12
2022-08-03T01:45:08.168Z,78.32
2022-08-03T01:46:07.172Z,78.52
2022-08-03T01:47:07.147Z,78.32
2022-08-03T01:48:07.138Z,78.42
2022-08-03T01:49:09.251Z,78.63
2022-08-03T01:50:07.119Z,78.63
2022-08-03T01:51:07.096Z,78.92
2022-08-03T01:52:07.099Z,79.03
2022-08-03T01:53:07.080Z,79.16
2022-08-03T01:54:07.075Z,79.27
2022-08-03T01:55:07.081Z,79.47
2022-08-03T01:56:07.058Z,79.57
2022-08-03T01:57:07.031Z,79.57
2022-08-03T01:58:07.048Z,79.57
2022-08-03T01:59:07.012Z,79.67
2022-08-03T02:00:07.000Z,79.87
2022-08-03T02:01:07.110Z,80.01
2022-08-03T02:02:28.835Z,79.91
2022-08-03T02:03:07.973Z,79.81
2022-08-03T02:04:06.950Z,79.81
2022-08-03T02:05:10.927Z,79.91
2022-08-03T02:07:00.518Z,80.01
2022-08-03T02:07:07.923Z,79.81
2022-08-03T02:08:06.898Z,79.81
2022-08-03T02:09:06.913Z,79.91
2022-08-03T02:10:06.993Z,80.01
2022-08-03T02:11:06.862Z,80.11
2022-08-03T02:12:06.903Z,80.01
2022-08-03T02:13:06.853Z,80.01
2022-08-03T02:14:06.843Z,79.91
2022-08-03T02:15:06.854Z,80.01
2022-08-03T02:16:06.812Z,80.01
2022-08-03T02:17:06.803Z,80.01
2022-08-03T02:18:06.814Z,80.21
2022-08-03T02:19:06.788Z,80.31
2022-08-03T02:20:06.765Z,80.41
2022-08-03T02:21:11.075Z,80.51
2022-08-03T02:22:06.754Z,80.62
2022-08-03T02:23:06.787Z,80.92
2022-08-03T02:24:06.725Z,80.62
2022-08-03T02:25:06.726Z,80.55
2022-08-03T02:26:06.705Z,80.76
2022-08-03T02:27:06.686Z,80.85
2022-08-03T02:28:06.686Z,80.96
2022-08-03T02:29:06.686Z,81.16
2022-08-03T02:30:06.647Z,81.26
2022-08-03T02:31:06.679Z,81.16
2022-08-03T02:32:06.628Z,81.16
2022-08-03T02:33:06.626Z,81.05
2022-08-03T02:34:06.626Z,80.85
2022-08-03T02:35:06.598Z,81.05
2022-08-03T02:36:06.609Z,81.16
2022-08-03T02:37:06.577Z,81.26
2022-08-03T02:38:06.556Z,81.36
2022-08-03T02:39:06.549Z,81.46
2022-08-03T02:40:06.567Z,81.36
2022-08-03T02:41:06.540Z,81.26
2022-08-03T02:42:06.518Z,81.36
2022-08-03T02:43:06.506Z,81.36
2022-08-03T02:44:07.408Z,81.26
2022-08-03T02:45:06.487Z,81.26
2022-08-03T02:46:06.528Z,81.26
2022-08-03T02:47:06.474Z,81.36
2022-08-03T02:48:06.439Z,81.26
2022-08-03T02:49:41.397Z,81.50
2022-08-03T02:50:07.463Z,81.40
2022-08-03T02:51:06.410Z,81.40
2022-08-03T02:52:06.412Z,81.50
2022-08-03T02:53:07.381Z,81.50
2022-08-03T02:54:06.382Z,81.50
2022-08-03T02:55:06.361Z,81.70
2022-08-03T02:56:06.383Z,81.90
2022-08-03T02:57:06.352Z,81.90
2022-08-03T02:58:06.331Z,81.80
2022-08-03T02:59:06.323Z,82.01
2022-08-03T03:00:06.311Z,81.90
2022-08-03T03:01:06.371Z,82.01
2022-08-03T03:02:06.302Z,82.01
2022-08-03T03:03:06.274Z,82.01
2022-08-03T03:04:06.260Z,82.01
2022-08-03T03:05:55.339Z,82.01
2022-08-03T03:06:07.233Z,82.01
2022-08-03T03:07:06.254Z,82.01
2022-08-03T03:08:06.213Z,82.01
2022-08-03T03:09:07.225Z,82.01
2022-08-03T03:10:06.194Z,82.24
2022-08-03T03:11:06.197Z,82.45
2022-08-03T03:12:06.184Z,82.65
2022-08-03T03:13:06.187Z,82.55
2022-08-03T03:14:06.146Z,82.35
2022-08-03T03:15:06.126Z,82.35
2022-08-03T03:16:06.165Z,82.35
2022-08-03T03:17:06.105Z,82.35
2022-08-03T03:18:06.125Z,82.45
2022-08-03T03:19:06.124Z,82.35
2022-08-03T03:20:06.088Z,82.35
2022-08-03T03:21:06.061Z,82.35
2022-08-03T03:22:06.046Z,82.35
2022-08-03T03:23:06.050Z,82.45
2022-08-03T03:24:06.079Z,82.65
2022-08-03T03:25:06.008Z,82.75
2022-08-03T03:26:06.008Z,82.85
2022-08-03T03:27:06.007Z,82.95
2022-08-03T03:28:06.432Z,82.95
2022-08-03T03:29:05.999Z,83.19
2022-08-03T03:30:06.008Z,83.29
2022-08-03T03:31:05.957Z,83.40
2022-08-03T03:32:05.938Z,83.40
2022-08-03T03:33:05.919Z,83.29
2022-08-03T03:34:05.932Z,83.19
2022-08-03T03:35:05.904Z,83.15
2022-08-03T03:36:05.920Z,83.05
2022-08-03T03:37:05.877Z,83.19
2022-08-03T03:38:05.874Z,83.29
2022-08-03T03:39:15.419Z,83.29
2022-08-03T03:40:06.841Z,83.26
2022-08-03T03:41:05.833Z,83.15
2022-08-03T03:42:05.856Z,83.05
2022-08-03T03:43:05.806Z,83.05
2022-08-03T03:44:05.801Z,83.09
2022-08-03T03:45:05.782Z,83.09
2022-08-03T03:46:05.786Z,83.09
2022-08-03T03:47:05.762Z,83.09
2022-08-03T03:48:05.778Z,83.09
2022-08-03T03:49:05.848Z,83.09
2022-08-03T03:50:05.742Z,83.19
2022-08-03T03:51:05.722Z,83.29
2022-08-03T03:52:05.705Z,83.40
2022-08-03T03:53:05.724Z,83.50
2022-08-03T03:54:05.683Z,83.70
2022-08-03T03:55:05.670Z,83.80
2022-08-03T03:56:05.661Z,83.80
2022-08-03T03:57:05.655Z,83.80
2022-08-03T03:58:05.643Z,84.00
2022-08-03T03:59:05.666Z,83.80
2022-08-03T04:00:05.616Z,83.60
2022-08-03T04:01:05.637Z,83.90
2022-08-03T04:02:05.595Z,84.14
2022-08-03T04:03:05.575Z,84.25
2022-08-03T04:04:05.577Z,84.25
2022-08-03T04:05:05.562Z,84.34
2022-08-03T04:06:05.549Z,84.45
2022-08-03T04:07:05.538Z,84.45
2022-08-03T04:08:05.515Z,84.55
2022-08-03T04:09:05.507Z,84.65
2022-08-03T04:10:14.096Z,84.65
2022-08-03T04:11:06.480Z,84.55
2022-08-03T04:12:05.469Z,84.55
2022-08-03T04:13:05.466Z,84.45
2022-08-03T04:14:05.448Z,84.45
2022-08-03T04:15:05.438Z,84.55
2022-08-03T04:16:05.439Z,84.51
2022-08-03T04:17:05.416Z,84.00
2022-08-03T04:18:05.398Z,83.80
2022-08-03T04:19:05.401Z,83.60
2022-08-03T04:20:05.396Z,83.60
2022-08-03T04:21:05.391Z,83.70
2022-08-03T04:22:05.371Z,83.50
2022-08-03T04:23:05.348Z,83.29
2022-08-03T04:24:06.341Z,83.19
2022-08-03T04:25:05.321Z,83.19
2022-08-03T04:26:05.321Z,83.19
2022-08-03T04:27:05.290Z,83.19
2022-08-03T04:28:20.956Z,83.15
2022-08-03T04:29:06.289Z,83.26
2022-08-03T04:30:05.285Z,83.26
2022-08-03T04:31:05.266Z,83.29
2022-08-03T04:32:05.239Z,83.29
2022-08-03T04:33:05.246Z,83.50
2022-08-03T04:34:05.429Z,83.50
2022-08-03T04:35:05.235Z,83.60
2022-08-03T04:36:05.193Z,83.60
2022-08-03T04:37:05.203Z,83.40
2022-08-03T04:38:05.175Z,83.40
2022-08-03T04:39:05.178Z,83.40
2022-08-03T04:40:05.181Z,83.26
2022-08-03T04:41:05.147Z,83.15
2022-08-03T04:42:08.531Z,83.15
2022-08-03T04:43:05.113Z,83.15
2022-08-03T04:44:05.144Z,82.95
2022-08-03T04:45:05.136Z,82.85
2022-08-03T04:46:05.124Z,82.95
2022-08-03T04:47:05.082Z,82.85
2022-08-03T04:48:05.075Z,82.75
2022-08-03T04:49:05.132Z,82.75
2022-08-03T04:50:08.068Z,82.75
2022-08-03T04:51:06.045Z,82.75
2022-08-03T04:52:05.061Z,82.61
2022-08-03T04:53:05.046Z,82.31
2022-08-03T04:54:05.037Z,82.31
2022-08-03T04:55:05.017Z,82.21
2022-08-03T04:56:04.987Z,82.10
2022-08-03T04:57:04.966Z,82.01
2022-08-03T04:58:04.948Z,81.87
2022-08-03T04:59:04.977Z,81.56
2022-08-03T05:00:04.944Z,81.56
2022-08-03T05:01:04.910Z,81.56
2022-08-03T05:02:05.007Z,81.56
2022-08-03T05:03:04.879Z,81.46
2022-08-03T05:04:05.883Z,81.67
2022-08-03T05:05:04.865Z,81.67
2022-08-03T05:06:09.664Z,81.76
2022-08-03T05:07:11.509Z,81.76
2022-08-03T05:08:05.829Z,81.87
2022-08-03T05:09:05.821Z,81.87
2022-08-03T05:10:04.813Z,81.87
2022-08-03T05:11:05.796Z,81.76
2022-08-03T05:12:04.786Z,81.73
2022-08-03T05:13:04.800Z,81.52
2022-08-03T05:14:04.783Z,81.52
2022-08-03T05:15:04.762Z,81.62
2022-08-03T05:16:04.733Z,81.62
2022-08-03T05:17:04.722Z,81.32
2022-08-03T05:18:04.713Z,81.08
2022-08-03T05:19:04.714Z,80.98
2022-08-03T05:20:04.683Z,80.88
2022-08-03T05:21:04.688Z,80.68
2022-08-03T05:22:04.682Z,80.38
2022-08-03T05:23:04.672Z,79.93
2022-08-03T05:24:04.672Z,79.93
2022-08-03T05:25:04.627Z,79.93
2022-08-03T05:26:04.618Z,79.83
2022-08-03T05:27:04.684Z,79.23
2022-08-03T05:28:04.608Z,79.19
2022-08-03T05:29:04.614Z,78.49
2022-08-03T05:30:30.542Z,78.89
2022-08-03T05:31:05.567Z,78.89
2022-08-03T05:32:08.213Z,78.79
2022-08-03T05:33:04.558Z,78.55
2022-08-03T05:34:04.529Z,78.55
2022-08-03T05:36:01.149Z,77.95
2022-08-03T05:36:05.538Z,77.64
2022-08-03T05:37:04.504Z,77.95
2022-08-03T05:38:04.496Z,77.44
2022-08-03T05:39:04.467Z,77.31
2022-08-03T05:40:04.468Z,76.60
2022-08-03T05:41:20.147Z,76.60
2022-08-03T05:42:05.461Z,75.90
2022-08-03T05:43:04.445Z,75.66
2022-08-03T05:44:04.430Z,75.46
2022-08-03T05:45:04.408Z,75.46
2022-08-03T05:46:12.817Z,75.15
2022-08-03T05:47:05.412Z,75.02
2022-08-03T05:48:04.382Z,75.02
2022-08-03T05:49:04.403Z,74.82
2022-08-03T05:50:04.351Z,74.62
2022-08-03T05:51:04.329Z,74.38
2022-08-03T05:52:11.554Z,74.38
2022-08-03T05:53:05.622Z,73.68
2022-08-03T05:54:04.291Z,73.58
2022-08-03T05:55:04.281Z,73.47
2022-08-03T05:56:13.563Z,73.24
2022-08-03T05:57:05.271Z,73.24
2022-08-03T05:58:04.251Z,73.44
2022-08-03T05:59:22.761Z,72.74
2022-08-03T06:00:05.255Z,73.10
2022-08-03T06:01:04.212Z,72.60
2022-08-03T06:02:04.277Z,71.70
2022-08-03T06:03:04.193Z,71.66
2022-08-03T06:04:04.222Z,71.97
2022-08-03T06:05:04.164Z,71.36
2022-08-03T06:06:04.171Z,71.53
2022-08-03T06:07:04.152Z,71.53
2022-08-03T06:08:04.147Z,70.89
2022-08-03T06:09:04.116Z,70.50
2022-08-03T06:10:35.662Z,70.06
2022-08-03T06:11:05.833Z,69.66
2022-08-03T06:12:04.085Z,69.96
2022-08-03T06:13:04.096Z,69.12
2022-08-03T06:14:04.086Z,69.62
2022-08-03T06:15:04.061Z,69.53
2022-08-03T06:16:04.075Z,69.19
2022-08-03T06:17:04.036Z,69.26
2022-08-03T06:18:04.027Z,68.16
2022-08-03T06:19:04.006Z,68.05
2022-08-03T06:20:03.996Z,67.36
2022-08-03T06:21:09.487Z,68.13
2022-08-03T06:22:05.058Z,68.13
2022-08-03T06:23:03.973Z,67.02
2022-08-03T06:24:03.949Z,67.22
2022-08-03T06:25:06.717Z,66.63
2022-08-03T06:26:04.939Z,66.72
2022-08-03T06:27:04.253Z,67.02
2022-08-03T06:28:03.909Z,67.72
2022-08-03T06:29:04.057Z,67.32
2022-08-03T06:30:03.881Z,67.46
2022-08-03T06:31:03.875Z,67.43
2022-08-03T06:32:03.852Z,67.72
2022-08-03T06:33:03.859Z,67.32
2022-08-03T06:34:32.989Z,67.59
2022-08-03T06:35:04.832Z,67.59
2022-08-03T06:36:03.812Z,66.46
2022-08-03T06:37:03.804Z,65.76
2022-08-03T06:38:03.842Z,65.63
2022-08-03T06:39:03.785Z,66.09
2022-08-03T06:40:03.775Z,64.10
2022-08-03T06:41:03.758Z,64.17
2022-08-03T06:42:03.738Z,63.57
2022-08-03T06:43:03.764Z,63.14
2022-08-03T06:44:04.517Z,62.94
2022-08-03T06:45:03.703Z,62.04
2022-08-03T06:46:03.696Z,61.52
2022-08-03T06:47:03.676Z,61.41
2022-08-03T06:48:03.686Z,61.39
2022-08-03T06:49:03.702Z,61.39
2022-08-03T06:50:12.695Z,61.29
2022-08-03T06:51:04.647Z,60.79
2022-08-03T06:52:06.776Z,60.06
2022-08-03T06:53:03.619Z,59.47
2022-08-03T06:54:03.598Z,59.74
2022-08-03T06:55:03.593Z,59.34
2022-08-03T06:56:03.611Z,59.44
2022-08-03T06:57:03.582Z,58.74
2022-08-03T06:58:03.724Z,59.21
2022-08-03T06:59:03.551Z,59.08
2022-08-03T07:00:07.339Z,57.99
2022-08-03T07:01:04.691Z,57.46
2022-08-03T07:02:03.510Z,56.67
2022-08-03T07:03:03.620Z,56.84
2022-08-03T07:04:03.480Z,56.24
2022-08-03T07:05:03.482Z,56.32
2022-08-03T07:06:03.553Z,56.12
2022-08-03T07:07:03.459Z,55.62
2022-08-03T07:08:03.431Z,55.44
2022-08-03T07:09:03.435Z,56.24
2022-08-03T07:10:03.402Z,56.34
2022-08-03T07:11:03.401Z,55.62
2022-08-03T07:12:03.427Z,55.82
2022-08-03T07:13:03.382Z,55.52
2022-08-03T07:14:03.365Z,54.72
2022-08-03T07:15:03.637Z,54.63
2022-08-03T07:16:03.376Z,55.02
2022-08-03T07:17:04.585Z,55.49
2022-08-03T07:18:04.331Z,54.10
2022-08-03T07:19:03.305Z,54.08
2022-08-03T07:20:03.315Z,52.98
2022-08-03T07:21:03.296Z,52.79
2022-08-03T07:22:04.331Z,52.56
2022-08-03T07:23:03.283Z,52.07
2022-08-03T07:24:03.273Z,52.66
2022-08-03T07:25:03.247Z,51.47
2022-08-03T07:26:03.228Z,51.79
2022-08-03T07:27:03.218Z,52.00
2022-08-03T07:28:03.236Z,52.17
2022-08-03T07:29:03.198Z,51.25
2022-08-03T07:30:03.219Z,51.35
2022-08-03T07:31:03.178Z,52.02
2022-08-03T07:32:03.158Z,50.65
2022-08-03T07:33:03.149Z,51.54
2022-08-03T07:34:03.184Z,51.35
2022-08-03T07:35:03.124Z,51.45
2022-08-03T07:36:04.118Z,50.63
2022-08-03T07:37:03.100Z,50.53
2022-08-03T07:38:03.088Z,51.52
2022-08-03T07:39:15.824Z,51.52
2022-08-03T07:40:04.101Z,51.00
2022-08-03T07:41:03.073Z,50.43
2022-08-03T07:42:03.076Z,50.85
2022-08-03T07:43:03.040Z,51.23
2022-08-03T07:44:03.024Z,50.93
2022-08-03T07:45:03.023Z,50.31
2022-08-03T07:46:03.046Z,51.10
2022-08-03T07:47:03.288Z,49.89
2022-08-03T07:48:02.997Z,49.29
2022-08-03T07:49:02.990Z,49.49
2022-08-03T07:50:02.969Z,49.69
2022-08-03T07:51:02.953Z,49.37
2022-08-03T07:52:02.962Z,48.88
2022-08-03T07:53:02.946Z,48.28
2022-08-03T07:54:02.916Z,48.26
2022-08-03T07:55:02.908Z,47.96
2022-08-03T07:56:02.896Z,47.74
2022-08-03T07:57:02.922Z,48.26
2022-08-03T07:58:03.752Z,48.26
2022-08-03T07:59:02.858Z,48.95
2022-08-03T08:00:03.168Z,47.47
2022-08-03T08:01:02.928Z,47.77
2022-08-03T08:02:02.828Z,47.17
2022-08-03T08:03:02.850Z,48.36
2022-08-03T08:04:02.811Z,48.33
2022-08-03T08:05:05.666Z,48.43
2022-08-03T08:06:02.790Z,48.33
2022-08-03T08:07:02.782Z,48.21
2022-08-03T08:08:02.762Z,47.62
2022-08-03T08:09:02.761Z,46.93
2022-08-03T08:10:02.733Z,47.40
2022-08-03T08:11:02.742Z,47.10
2022-08-03T08:12:02.752Z,47.08
2022-08-03T08:13:02.692Z,47.18
2022-08-03T08:14:02.716Z,47.08
2022-08-03T08:15:02.692Z,46.96
2022-08-03T08:16:02.698Z,45.97
2022-08-03T08:17:07.168Z,45.26
2022-08-03T08:18:02.651Z,45.36
2022-08-03T08:19:02.628Z,45.65
2022-08-03T08:20:02.645Z,44.94
2022-08-03T08:21:02.606Z,44.65
2022-08-03T08:22:03.109Z,44.94
2022-08-03T08:23:03.642Z,45.93
2022-08-03T08:24:03.595Z,45.16
2022-08-03T08:25:02.605Z,45.67
2022-08-03T08:26:02.606Z,46.26
2022-08-03T08:27:02.536Z,46.56
2022-08-03T08:28:31.930Z,45.78
2022-08-03T08:29:03.528Z,45.87
2022-08-03T08:30:10.185Z,45.56
2022-08-03T08:31:03.532Z,45.46
2022-08-03T08:32:02.490Z,44.96
2022-08-03T08:33:02.469Z,44.96
2022-08-03T08:34:04.174Z,44.94
2022-08-03T08:35:02.448Z,44.72
2022-08-03T08:36:02.619Z,44.62
2022-08-03T08:37:02.434Z,43.91
2022-08-03T08:38:05.781Z,44.01
2022-08-03T08:39:02.400Z,43.91
2022-08-03T08:40:02.390Z,43.93
2022-08-03T08:41:02.383Z,43.52
2022-08-03T08:42:02.713Z,43.32
2022-08-03T08:43:02.390Z,42.54
2022-08-03T08:44:02.436Z,42.24
2022-08-03T08:45:02.377Z,42.52
2022-08-03T08:46:02.354Z,41.24
2022-08-03T08:47:02.324Z,42.32
2022-08-03T08:48:06.542Z,42.14
2022-08-03T08:49:04.518Z,42.61
2022-08-03T08:50:10.039Z,42.32
2022-08-03T08:51:03.273Z,42.73
2022-08-03T08:52:02.291Z,43.13
2022-08-03T08:53:02.275Z,42.52
2022-08-03T08:54:02.294Z,42.40
2022-08-03T08:55:02.224Z,41.22
2022-08-03T08:56:02.225Z,41.22
2022-08-03T08:57:02.208Z,41.09
2022-08-03T08:58:02.189Z,41.41
2022-08-03T08:59:02.187Z,41.11
2022-08-03T09:00:02.186Z,41.29
2022-08-03T09:01:02.191Z,40.90
2022-08-03T09:02:02.151Z,41.49
2022-08-03T09:03:02.136Z,41.59
2022-08-03T09:04:02.132Z,41.29
2022-08-03T09:05:07.190Z,41.19
2022-08-03T09:06:03.117Z,40.90
2022-08-03T09:07:19.311Z,41.77
2022-08-03T09:08:03.080Z,41.08
2022-08-03T09:09:02.068Z,40.17
2022-08-03T09:10:12.632Z,40.29
2022-08-03T09:11:03.074Z,39.80
2022-08-03T09:12:21.079Z,39.60
2022-08-03T09:13:03.031Z,40.29
2022-08-03T09:14:02.021Z,39.88
2022-08-03T09:15:16.409Z,39.88
2022-08-03T09:16:03.020Z,40.17
2022-08-03T09:17:01.972Z,39.56
2022-08-03T09:18:02.012Z,39.17
2022-08-03T09:19:01.962Z,38.96
2022-08-03T09:20:03.162Z,38.46
2022-08-03T09:21:18.982Z,38.25
2022-08-03T09:22:02.943Z,37.76
2022-08-03T09:23:06.078Z,37.76
2022-08-03T09:24:04.097Z,37.66
2022-08-03T09:25:22.786Z,37.45
2022-08-03T09:26:02.888Z,38.04
2022-08-03T09:27:01.859Z,37.94
2022-08-03T09:28:01.870Z,37.65
2022-08-03T09:29:05.939Z,39.01
2022-08-03T09:30:02.841Z,37.94
2022-08-03T09:31:01.817Z,37.13
2022-08-03T09:32:01.830Z,36.57
2022-08-03T09:33:01.829Z,37.23
2022-08-03T09:34:01.779Z,37.05
2022-08-03T09:35:01.789Z,37.82
2022-08-03T09:36:02.008Z,37.54
2022-08-03T09:37:01.758Z,37.25
2022-08-03T09:38:12.525Z,37.33
2022-08-03T09:39:02.771Z,37.15
2022-08-03T09:40:01.719Z,36.84
2022-08-03T09:41:01.728Z,36.74
2022-08-03T09:42:01.690Z,36.74
2022-08-03T09:43:01.692Z,37.23
2022-08-03T09:44:01.728Z,36.55
2022-08-03T09:45:01.680Z,37.04
2022-08-03T09:46:01.657Z,37.13
2022-08-03T09:47:01.642Z,37.13
2022-08-03T09:48:01.633Z,36.63
2022-08-03T09:49:01.680Z,36.92
2022-08-03T09:50:01.634Z,36.63
2022-08-03T09:51:13.694Z,36.65
2022-08-03T09:52:33.115Z,36.06
2022-08-03T09:53:02.654Z,36.72
2022-08-03T09:54:01.565Z,36.14
2022-08-03T09:55:01.595Z,36.43
2022-08-03T09:56:33.372Z,36.63
2022-08-03T09:57:02.527Z,36.71
2022-08-03T09:58:01.531Z,36.61
2022-08-03T09:59:01.515Z,36.30
2022-08-03T10:00:07.710Z,35.91
2022-08-03T10:01:02.584Z,35.63
2022-08-03T10:02:01.500Z,35.14
2022-08-03T10:03:01.488Z,35.94
2022-08-03T10:04:04.275Z,36.63
2022-08-03T10:05:01.457Z,36.24
2022-08-03T10:06:01.470Z,36.24
2022-08-03T10:07:01.434Z,36.90
2022-08-03T10:08:01.419Z,35.53
2022-08-03T10:09:01.410Z,35.83
2022-08-03T10:10:30.726Z,36.49
2022-08-03T10:11:02.433Z,35.32
2022-08-03T10:12:01.370Z,35.03
2022-08-03T10:13:01.364Z,35.60
2022-08-03T10:14:01.687Z,35.50
2022-08-03T10:15:01.353Z,36.00
2022-08-03T10:16:21.562Z,35.32
2022-08-03T10:17:02.350Z,35.63
2022-08-03T10:18:01.361Z,36.22
2022-08-03T10:19:01.292Z,35.73
2022-08-03T10:20:01.321Z,35.53
2022-08-03T10:21:01.287Z,36.35
2022-08-03T10:22:01.288Z,37.13
2022-08-03T10:23:01.264Z,37.23
2022-08-03T10:24:01.274Z,36.96
2022-08-03T10:25:01.235Z,38.43
2022-08-03T10:26:01.229Z,36.80
2022-08-03T10:27:01.208Z,36.22
2022-08-03T10:28:01.228Z,35.93
2022-08-03T10:29:01.197Z,36.53
2022-08-03T10:30:01.201Z,36.22
2022-08-03T10:31:01.168Z,36.00
2022-08-03T10:32:01.162Z,35.61
2022-08-03T10:33:01.159Z,35.81
2022-08-03T10:34:01.138Z,35.40
2022-08-03T10:35:01.129Z,35.11
2022-08-03T10:36:01.282Z,35.69
2022-08-03T10:37:01.109Z,34.99
2022-08-03T10:38:01.151Z,35.30
2022-08-03T10:39:01.141Z,35.81
2022-08-03T10:40:01.118Z,35.22
2022-08-03T10:41:01.126Z,35.71
2022-08-03T10:42:02.796Z,36.04
2022-08-03T10:43:01.113Z,36.53
2022-08-03T10:44:01.061Z,36.63
2022-08-03T10:45:01.102Z,36.61
2022-08-03T10:46:01.034Z,35.71
2022-08-03T10:47:01.045Z,35.89
2022-08-03T10:48:01.042Z,36.07
2022-08-03T10:49:01.059Z,35.66
2022-08-03T10:50:00.965Z,35.46
2022-08-03T10:51:01.051Z,34.86
2022-08-03T10:52:00.948Z,33.97
2022-08-03T10:53:02.050Z,34.36
2022-08-03T10:54:01.871Z,33.75
2022-08-03T10:55:01.024Z,33.18
2022-08-03T10:56:00.905Z,34.18
2022-08-03T10:57:13.663Z,34.28
2022-08-03T10:58:01.900Z,34.08
2022-08-03T10:59:00.858Z,34.38
2022-08-03T11:00:00.883Z,33.50
2022-08-03T11:01:00.958Z,34.08
2022-08-03T11:02:01.321Z,34.77
2022-08-03T11:03:00.944Z,34.38
2022-08-03T11:04:00.846Z,34.45
2022-08-03T11:05:00.797Z,33.77
2022-08-03T11:06:00.787Z,33.77
2022-08-03T11:07:00.772Z,33.85
2022-08-03T11:08:00.767Z,33.48
2022-08-03T11:09:00.768Z,33.87
2022-08-03T11:10:00.800Z,33.48
2022-08-03T11:11:00.730Z,33.58
2022-08-03T11:12:00.726Z,33.98
2022-08-03T11:13:00.755Z,34.26
2022-08-03T11:14:00.693Z,33.77
2022-08-03T11:15:00.688Z,34.63
2022-08-03T11:16:03.034Z,33.83
2022-08-03T11:17:00.660Z,33.46
2022-08-03T11:18:00.654Z,33.85
2022-08-03T11:19:00.634Z,33.07
2022-08-03T11:20:00.629Z,33.48
2022-08-03T11:21:00.623Z,34.36
2022-08-03T11:22:00.624Z,33.58
2022-08-03T11:23:00.597Z,34.14
2022-08-03T11:24:02.687Z,34.22
2022-08-03T11:25:01.584Z,33.65
2022-08-03T11:26:00.557Z,33.15
2022-08-03T11:27:04.311Z,33.75
2022-08-03T11:28:01.546Z,33.44
2022-08-03T11:29:00.528Z,33.28
2022-08-03T11:30:00.521Z,33.67
2022-08-03T11:31:00.520Z,33.58
2022-08-03T11:32:00.498Z,33.85
2022-08-03T11:33:00.514Z,33.75
2022-08-03T11:34:00.479Z,33.56
2022-08-03T11:35:00.460Z,33.79
2022-08-03T11:36:00.452Z,34.47
2022-08-03T11:37:00.448Z,34.47
2022-08-03T11:38:04.462Z,34.09
2022-08-03T11:39:00.453Z,34.41
2022-08-03T11:40:02.574Z,35.58
2022-08-03T11:41:00.395Z,34.47
2022-08-03T11:42:00.383Z,33.30
2022-08-03T11:43:00.374Z,33.11
2022-08-03T11:44:00.364Z,33.38
2022-08-03T11:45:00.369Z,33.28
2022-08-03T11:46:00.344Z,32.70
2022-08-03T11:47:00.332Z,33.18
2022-08-03T11:48:00.316Z,32.99
2022-08-03T11:49:00.317Z,32.89
2022-08-03T11:50:00.466Z,33.98
2022-08-03T11:51:00.295Z,34.55
2022-08-03T11:52:00.335Z,33.85
2022-08-03T11:53:00.270Z,32.68
2022-08-03T11:54:00.265Z,32.67
2022-08-03T11:55:00.256Z,31.99
2022-08-03T11:56:00.400Z,31.99
2022-08-03T11:57:00.223Z,32.39
2022-08-03T11:59:16.631Z,32.47
2022-08-03T11:59:18.038Z,32.86
2022-08-03T12:00:01.300Z,32.55
2022-08-03T12:01:00.179Z,31.79
2022-08-03T12:02:00.200Z,32.06
2022-08-03T12:03:00.201Z,32.45
2022-08-03T12:04:00.139Z,32.75
2022-08-03T12:05:00.152Z,32.26
2022-08-03T12:06:00.123Z,32.28
2022-08-03T12:07:00.145Z,32.76
2022-08-03T12:08:03.930Z,31.96
2022-08-03T12:09:01.201Z,31.87
2022-08-03T12:10:00.155Z,31.28
2022-08-03T12:11:00.447Z,31.77
2022-08-03T12:12:01.127Z,32.73
2022-08-03T12:13:00.335Z,32.24
2022-08-03T12:14:45.531Z,31.95
2022-08-03T12:15:01.035Z,32.35
2022-08-03T12:16:00.022Z,32.06
2022-08-03T12:17:00.074Z,32.26
2022-08-03T12:18:00.034Z,31.79
2022-08-03T12:18:59.987Z,32.08
2022-08-03T12:19:59.969Z,31.90
2022-08-03T12:20:59.981Z,32.09
2022-08-03T12:21:59.957Z,31.79
2022-08-03T12:22:59.937Z,31.40
2022-08-03T12:23:59.948Z,30.93
2022-08-03T12:24:59.921Z,31.22
2022-08-03T12:25:59.927Z,31.02
2022-08-03T12:27:00.243Z,31.99
2022-08-03T12:27:59.880Z,31.70
2022-08-03T12:28:59.949Z,31.90
2022-08-03T12:29:59.954Z,32.19
2022-08-03T12:30:59.849Z,32.39
2022-08-03T12:31:59.840Z,32.39
2022-08-03T12:32:59.838Z,31.52
2022-08-03T12:33:59.823Z,31.93
2022-08-03T12:35:00.424Z,32.32
2022-08-03T12:35:59.802Z,32.71
2022-08-03T12:36:59.784Z,32.31
2022-08-03T12:37:59.782Z,32.32
2022-08-03T12:38:59.771Z,32.62
2022-08-03T12:40:02.835Z,32.71
2022-08-03T12:41:00.774Z,33.38
2022-08-03T12:41:59.726Z,32.68
2022-08-03T12:42:59.745Z,33.17
2022-08-03T12:43:59.710Z,31.70
2022-08-03T12:44:59.695Z,32.08
2022-08-03T12:45:59.685Z,30.93
2022-08-03T12:46:59.711Z,31.80
2022-08-03T12:47:59.670Z,31.90
2022-08-03T12:48:59.727Z,31.70
2022-08-03T12:49:59.646Z,32.48
2022-08-03T12:50:59.648Z,31.99
2022-08-03T12:52:03.904Z,31.70